createdAt,value
2023-02-11T00:00:04.280Z,25.70
2023-02-11T00:02:33.150Z,23.70
2023-02-11T00:05:02.646Z,22.23
2023-02-11T00:07:31.676Z,24.10
2023-02-11T00:10:02.800Z,23.88
2023-02-11T00:12:31.242Z,23.40
2023-02-11T00:14:59.576Z,23.33
2023-02-11T00:17:27.892Z,22.77
2023-02-11T00:19:56.354Z,24.65
2023-02-11T00:22:24.700Z,23.13
2023-02-11T00:24:52.979Z,22.42
2023-02-11T00:27:22.377Z,23.40
2023-02-11T00:29:50.719Z,23.77
2023-02-11T00:32:19.096Z,21.75
2023-02-11T00:34:47.425Z,21.98
2023-02-11T00:37:15.779Z,22.83
2023-02-11T00:39:44.077Z,23.73
2023-02-11T00:42:16.452Z,22.73
2023-02-11T00:44:45.832Z,22.05
2023-02-11T00:47:14.150Z,21.55
2023-02-11T00:49:42.502Z,21.35
2023-02-11T00:52:10.874Z,24.52
2023-02-11T00:54:39.301Z,22.73
2023-02-11T00:57:07.646Z,22.48
2023-02-11T00:59:35.934Z,23.23
2023-02-11T01:02:05.293Z,22.73
2023-02-11T01:04:33.562Z,21.30
2023-02-11T01:07:01.839Z,21.85
2023-02-11T01:09:30.440Z,20.17
2023-02-11T01:11:58.768Z,20.75
2023-02-11T01:14:27.188Z,20.58
2023-02-11T01:16:55.529Z,19.90
2023-02-11T01:19:24.992Z,19.85
2023-02-11T01:21:53.341Z,19.13
2023-02-11T01:24:21.629Z,18.83
2023-02-11T01:26:49.886Z,20.70
2023-02-11T01:29:18.204Z,18.92
2023-02-11T01:31:46.576Z,19.83
2023-02-11T01:34:15.125Z,18.98
2023-02-11T01:36:44.725Z,19.00
2023-02-11T01:39:13.013Z,20.15
2023-02-11T01:41:41.268Z,20.15
2023-02-11T01:44:30.202Z,18.63
2023-02-11T01:46:58.739Z,19.02
2023-02-11T01:49:29.503Z,17.73
2023-02-11T01:52:03.093Z,18.23
2023-02-11T01:54:53.737Z,18.30
2023-02-11T01:57:27.301Z,17.35
2023-02-11T02:00:08.569Z,17.25
2023-02-11T02:02:44.115Z,17.77
2023-02-11T02:05:21.076Z,18.13
2023-02-11T02:07:58.256Z,17.33
2023-02-11T02:10:29.168Z,16.58
2023-02-11T02:12:57.846Z,18.23
2023-02-11T02:15:29.317Z,17.17
2023-02-11T02:18:06.238Z,17.35
2023-02-11T02:21:10.847Z,17.70
2023-02-11T02:24:06.728Z,16.25
2023-02-11T02:27:07.165Z,15.77
2023-02-11T02:30:14.760Z,15.05
2023-02-11T02:32:56.852Z,16.35
2023-02-11T02:35:35.413Z,16.48
2023-02-11T02:38:09.928Z,15.50
2023-02-11T02:40:42.995Z,15.80
2023-02-11T02:43:11.898Z,16.50
2023-02-11T02:45:40.298Z,16.77
2023-02-11T02:48:26.028Z,14.80
2023-02-11T02:51:04.165Z,14.85
2023-02-11T02:53:45.273Z,14.20
2023-02-11T02:56:20.286Z,15.13
2023-02-11T02:59:04.842Z,13.30
2023-02-11T03:01:40.742Z,14.38
2023-02-11T03:04:18.642Z,14.75
2023-02-11T03:06:53.584Z,14.68
2023-02-11T03:09:26.998Z,14.57
2023-02-11T03:11:55.463Z,15.55
2023-02-11T03:14:26.797Z,15.05
2023-02-11T03:16:57.801Z,15.55
2023-02-11T03:19:30.203Z,14.80
2023-02-11T03:21:58.549Z,15.02
2023-02-11T03:24:31.993Z,14.82
2023-02-11T03:27:06.082Z,14.43
2023-02-11T03:29:38.777Z,14.68
2023-02-11T03:32:16.164Z,16.00
2023-02-11T03:34:50.010Z,15.55
2023-02-11T03:37:21.242Z,15.75
2023-02-11T03:39:53.713Z,15.73
2023-02-11T03:42:24.172Z,15.90
2023-02-11T03:44:59.643Z,14.80
2023-02-11T03:47:30.824Z,16.88
2023-02-11T03:50:02.558Z,15.40
2023-02-11T03:52:31.175Z,15.35
2023-02-11T03:55:01.384Z,15.57
2023-02-11T03:57:29.702Z,16.70
2023-02-11T03:59:59.314Z,15.65
2023-02-11T04:02:30.408Z,16.67
2023-02-11T04:04:59.839Z,15.95
2023-02-11T04:07:28.393Z,14.73
2023-02-11T04:09:56.737Z,15.75
2023-02-11T04:12:25.155Z,17.95
2023-02-11T04:14:53.406Z,18.15
2023-02-11T04:17:21.669Z,16.38
2023-02-11T04:19:50.075Z,17.15
2023-02-11T04:22:19.447Z,17.65
2023-02-11T04:24:47.688Z,17.90
2023-02-11T04:27:15.965Z,17.13
2023-02-11T04:29:44.329Z,16.83
2023-02-11T04:32:13.198Z,17.75
2023-02-11T04:34:41.686Z,13.63
2023-02-11T04:37:09.930Z,17.25
2023-02-11T04:39:39.586Z,17.67
2023-02-11T04:42:07.844Z,16.83
2023-02-11T04:44:36.093Z,18.40
2023-02-11T04:47:06.176Z,17.00
2023-02-11T04:49:34.438Z,17.92
2023-02-11T04:52:02.690Z,17.67
2023-02-11T04:54:31.268Z,16.92
2023-02-11T04:57:00.562Z,18.27
2023-02-11T04:59:28.995Z,18.90
2023-02-11T05:01:57.540Z,18.08
2023-02-11T05:04:26.122Z,18.67
2023-02-11T05:06:55.275Z,18.65
2023-02-11T05:09:24.920Z,18.85
2023-02-11T05:11:53.636Z,19.50
2023-02-11T05:14:23.302Z,19.40
2023-02-11T05:16:51.709Z,19.95
2023-02-11T05:19:20.063Z,19.70
2023-02-11T05:22:01.712Z,19.65
2023-02-11T05:24:30.613Z,19.90
2023-02-11T05:26:59.238Z,19.33
2023-02-11T05:29:29.260Z,20.63
2023-02-11T05:31:58.338Z,21.13
2023-02-11T05:34:27.161Z,21.85
2023-02-11T05:36:55.468Z,21.50
2023-02-11T05:39:23.772Z,21.05
2023-02-11T05:41:52.058Z,21.98
2023-02-11T05:44:20.412Z,26.15
2023-02-11T05:46:50.226Z,23.45
2023-02-11T05:49:18.671Z,23.42
2023-02-11T05:51:47.054Z,24.17
2023-02-11T05:54:15.733Z,23.52
2023-02-11T05:56:45.016Z,23.00
2023-02-11T05:59:15.455Z,23.58
2023-02-11T06:01:43.800Z,25.05
2023-02-11T06:04:13.181Z,24.75
2023-02-11T06:06:41.431Z,23.67
2023-02-11T06:09:10.897Z,24.75
2023-02-11T06:11:39.191Z,22.92
2023-02-11T06:14:07.780Z,24.02
2023-02-11T06:16:36.091Z,23.92
2023-02-11T06:19:04.691Z,26.80
2023-02-11T06:21:43.476Z,24.58
2023-02-11T06:24:12.458Z,25.83
2023-02-11T06:26:40.487Z,24.02
2023-02-11T06:29:08.981Z,22.65
2023-02-11T06:31:39.054Z,23.20
2023-02-11T06:34:12.429Z,23.15
2023-02-11T06:36:42.911Z,24.20
2023-02-11T06:39:11.501Z,23.63
2023-02-11T06:41:40.088Z,24.30
2023-02-11T06:44:08.474Z,23.98
2023-02-11T06:46:36.906Z,23.52
2023-02-11T06:49:05.258Z,22.98
2023-02-11T06:51:33.687Z,22.95
2023-02-11T06:54:03.454Z,23.67
2023-02-11T06:56:33.241Z,22.67
2023-02-11T06:59:01.892Z,23.20
2023-02-11T07:01:30.361Z,23.00
2023-02-11T07:03:58.800Z,24.25
2023-02-11T07:06:28.950Z,22.20
2023-02-11T07:08:57.736Z,23.85
2023-02-11T07:11:29.113Z,21.52
2023-02-11T07:14:01.690Z,23.25
2023-02-11T07:16:30.130Z,23.17
2023-02-11T07:19:01.948Z,21.83
2023-02-11T07:21:30.278Z,21.42
2023-02-11T07:23:58.637Z,21.65
2023-02-11T07:26:29.167Z,19.75
2023-02-11T07:28:57.672Z,23.15
2023-02-11T07:31:28.564Z,21.00
2023-02-11T07:33:59.267Z,23.00
2023-02-11T07:36:29.184Z,22.42
2023-02-11T07:38:57.552Z,24.48
2023-02-11T07:41:28.506Z,22.02
2023-02-11T07:43:57.086Z,22.67
2023-02-11T07:46:28.085Z,19.98
2023-02-11T07:48:56.719Z,21.23
2023-02-11T07:51:26.463Z,22.05
2023-02-11T07:53:55.386Z,21.08
2023-02-11T07:56:24.884Z,22.42
2023-02-11T07:58:55.265Z,21.95
2023-02-11T08:01:25.947Z,21.55
2023-02-11T08:03:58.944Z,19.65
2023-02-11T08:09:00.498Z,20.63
2023-02-11T08:11:30.002Z,20.13
2023-02-11T08:13:59.715Z,18.88
2023-02-11T08:16:29.999Z,19.13
2023-02-11T08:18:59.737Z,19.17
2023-02-11T08:21:31.935Z,19.83
2023-02-11T08:24:04.628Z,20.00
2023-02-11T08:26:34.888Z,17.70
2023-02-11T08:29:10.392Z,19.05
2023-02-11T08:31:40.992Z,17.33
2023-02-11T08:34:11.019Z,17.30
2023-02-11T08:36:42.677Z,17.83
2023-02-11T08:39:19.787Z,19.67
2023-02-11T08:41:52.856Z,17.48
2023-02-11T08:44:23.749Z,17.67
2023-02-11T08:46:52.735Z,16.95
2023-02-11T08:49:22.172Z,16.13
2023-02-11T08:51:54.303Z,16.55
2023-02-11T08:54:22.779Z,15.70
2023-02-11T08:56:52.649Z,15.85
2023-02-11T08:59:21.021Z,15.57
2023-02-11T09:01:51.142Z,15.57
2023-02-11T09:04:19.879Z,15.93
2023-02-11T09:06:50.760Z,16.92
2023-02-11T09:09:19.921Z,14.75
2023-02-11T09:11:54.426Z,16.25
2023-02-11T09:14:24.168Z,15.02
2023-02-11T09:16:56.218Z,16.50
2023-02-11T09:19:26.696Z,16.37
2023-02-11T09:22:10.245Z,15.50
2023-02-11T09:24:38.900Z,14.63
2023-02-11T09:27:07.708Z,14.70
2023-02-11T09:29:36.697Z,15.07
2023-02-11T09:32:09.746Z,14.25
2023-02-11T09:34:41.652Z,14.63
2023-02-11T09:37:10.201Z,13.32
2023-02-11T09:39:38.950Z,13.82
2023-02-11T09:42:42.158Z,13.95
2023-02-11T09:45:17.507Z,15.05
2023-02-11T09:47:52.111Z,14.75
2023-02-11T09:50:29.851Z,14.07
2023-02-11T09:53:06.868Z,12.55
2023-02-11T09:56:14.603Z,13.43
2023-02-11T09:58:49.869Z,13.02
2023-02-11T10:01:28.161Z,13.80
2023-02-11T10:04:11.254Z,13.40
2023-02-11T10:06:53.890Z,12.82
2023-02-11T10:09:49.144Z,12.57
2023-02-11T10:12:49.733Z,12.60
2023-02-11T10:15:39.852Z,12.82
2023-02-11T10:18:35.055Z,12.70
2023-02-11T10:21:18.536Z,13.52
2023-02-11T10:23:55.657Z,11.82
2023-02-11T10:26:24.468Z,13.13
2023-02-11T10:29:02.416Z,13.25
2023-02-11T10:31:42.239Z,14.75
2023-02-11T10:34:12.249Z,12.57
2023-02-11T10:36:46.650Z,12.95
2023-02-11T10:39:19.596Z,12.43
2023-02-11T10:41:51.331Z,12.45
2023-02-11T10:44:41.492Z,13.05
2023-02-11T10:47:19.774Z,11.55
2023-02-11T10:49:49.243Z,11.75
2023-02-11T10:52:23.779Z,12.85
2023-02-11T10:55:05.465Z,11.50
2023-02-11T10:57:38.471Z,12.50
2023-02-11T11:00:31.626Z,13.18
2023-02-11T11:03:03.613Z,13.52
2023-02-11T11:05:36.652Z,11.77
2023-02-11T11:10:43.499Z,12.48
2023-02-11T11:13:32.165Z,12.00
2023-02-11T11:16:29.998Z,14.02
2023-02-11T11:19:21.652Z,13.52
2023-02-11T11:21:52.871Z,12.77
2023-02-11T11:24:41.767Z,12.80
2023-02-11T11:27:28.290Z,13.65
2023-02-11T11:30:02.601Z,13.68
2023-02-11T11:32:34.369Z,13.60
2023-02-11T11:35:06.125Z,13.13
2023-02-11T11:37:39.734Z,14.77
2023-02-11T11:40:25.366Z,14.90
2023-02-11T11:43:19.772Z,14.48
2023-02-11T11:45:56.996Z,13.98
2023-02-11T11:48:32.420Z,13.07
2023-02-11T11:51:05.647Z,14.50
2023-02-11T11:53:40.571Z,14.65
2023-02-11T11:56:16.746Z,15.20
2023-02-11T11:58:46.346Z,15.32
2023-02-11T12:01:30.467Z,14.65
2023-02-11T12:04:26.438Z,14.90
2023-02-11T12:07:12.716Z,14.48
2023-02-11T12:09:57.912Z,15.40
2023-02-11T12:12:41.635Z,15.50
2023-02-11T12:15:26.990Z,15.10
2023-02-11T12:18:02.017Z,14.00
2023-02-11T12:20:53.789Z,14.98
2023-02-11T12:23:46.096Z,14.82
2023-02-11T12:26:20.154Z,16.20
2023-02-11T12:29:05.159Z,15.50
2023-02-11T12:31:47.633Z,16.17
2023-02-11T12:34:48.636Z,15.77
2023-02-11T12:37:35.118Z,15.25
2023-02-11T12:40:13.620Z,15.40
2023-02-11T12:43:24.493Z,15.13
2023-02-11T12:46:08.965Z,15.80
2023-02-11T12:49:07.040Z,15.85
2023-02-11T12:51:49.232Z,13.93
2023-02-11T12:54:32.275Z,15.60
2023-02-11T12:57:05.644Z,14.80
2023-02-11T12:59:44.903Z,15.50
2023-02-11T13:02:24.174Z,14.57
2023-02-11T13:04:57.038Z,14.63
2023-02-11T13:07:33.286Z,15.05
2023-02-11T13:10:23.656Z,13.73
2023-02-11T13:13:13.221Z,13.90
2023-02-11T13:15:44.445Z,13.60
2023-02-11T13:18:27.410Z,13.68
2023-02-11T13:21:01.618Z,14.27
2023-02-11T13:23:42.737Z,14.55
2023-02-11T13:26:19.265Z,13.98
2023-02-11T13:28:56.381Z,14.63
2023-02-11T13:31:28.875Z,14.82
2023-02-11T13:33:59.921Z,14.82
2023-02-11T13:36:33.326Z,15.75
2023-02-11T13:39:05.749Z,14.55
2023-02-11T13:41:40.554Z,15.07
2023-02-11T13:44:23.461Z,14.77
2023-02-11T13:47:02.350Z,13.43
2023-02-11T13:49:40.604Z,14.05
2023-02-11T13:52:24.644Z,14.50
2023-02-11T13:54:56.187Z,13.77
2023-02-11T13:57:47.937Z,13.77
2023-02-11T14:00:51.676Z,15.25
2023-02-11T14:03:52.687Z,14.57
2023-02-11T14:06:42.926Z,13.25
2023-02-11T14:09:40.005Z,14.90
2023-02-11T14:12:33.892Z,14.00
2023-02-11T14:15:26.749Z,14.43
2023-02-11T14:17:56.503Z,14.50
2023-02-11T14:20:40.529Z,13.90
2023-02-11T14:23:22.400Z,14.50
2023-02-11T14:26:12.911Z,14.50
2023-02-11T14:28:47.171Z,13.25
2023-02-11T14:31:19.859Z,14.77
2023-02-11T14:34:38.326Z,15.60
2023-02-11T14:37:24.819Z,14.18
2023-02-11T14:40:02.714Z,12.73
2023-02-11T14:42:35.955Z,12.85
2023-02-11T14:45:07.604Z,12.05
2023-02-11T14:47:42.332Z,12.07
2023-02-11T14:50:19.747Z,11.07
2023-02-11T14:52:49.902Z,13.57
2023-02-11T14:55:30.285Z,12.95
2023-02-11T14:58:14.570Z,12.05
2023-02-11T15:01:04.076Z,13.35
2023-02-11T15:03:38.221Z,11.50
2023-02-11T15:06:31.935Z,12.85
2023-02-11T15:09:08.626Z,12.55
2023-02-11T15:11:44.622Z,12.93
2023-02-11T15:14:28.734Z,12.40
2023-02-11T15:17:00.511Z,12.77
2023-02-11T15:19:36.168Z,11.27
2023-02-11T15:22:10.188Z,12.98
2023-02-11T15:24:42.695Z,11.90
2023-02-11T15:27:18.018Z,11.88
2023-02-11T15:30:00.308Z,11.80
2023-02-11T15:32:42.696Z,12.38
2023-02-11T15:35:17.738Z,14.13
2023-02-11T15:37:50.759Z,11.95
2023-02-11T15:43:08.703Z,11.82
2023-02-11T15:45:58.959Z,11.45
2023-02-11T15:48:36.529Z,11.80
2023-02-11T15:51:18.804Z,12.18
2023-02-11T15:53:58.791Z,12.70
2023-02-11T15:56:33.050Z,14.15
2023-02-11T15:59:13.606Z,13.95
2023-02-11T16:01:53.007Z,13.55
2023-02-11T16:04:25.678Z,13.13
2023-02-11T16:06:57.599Z,12.57
2023-02-11T16:09:36.194Z,11.65
2023-02-11T16:12:23.986Z,13.70
2023-02-11T16:15:00.464Z,12.73
2023-02-11T16:17:32.901Z,14.60
2023-02-11T16:20:03.665Z,14.90
2023-02-11T16:22:38.409Z,18.27
2023-02-11T16:25:24.512Z,15.90
2023-02-11T16:27:58.341Z,14.70
2023-02-11T16:30:37.928Z,13.65
2023-02-11T16:33:20.837Z,14.00
2023-02-11T16:35:52.308Z,14.13
2023-02-11T16:38:32.957Z,17.45
2023-02-11T16:41:04.221Z,18.10
2023-02-11T16:43:35.139Z,15.82
2023-02-11T16:46:04.443Z,15.48
2023-02-11T16:48:42.984Z,15.95
2023-02-11T16:51:28.249Z,17.98
2023-02-11T16:53:56.727Z,26.10
2023-02-11T16:56:29.026Z,50.42
2023-02-11T16:58:57.395Z,51.50
2023-02-11T17:01:27.158Z,44.63
2023-02-11T17:03:56.459Z,27.73
2023-02-11T17:06:28.737Z,19.85
2023-02-11T17:08:57.582Z,20.38
2023-02-11T17:11:27.037Z,21.80
2023-02-11T17:13:58.405Z,22.15
2023-02-11T17:16:29.735Z,26.20
2023-02-11T17:19:02.299Z,31.98
2023-02-11T17:21:32.211Z,27.85
2023-02-11T17:24:00.573Z,27.05
2023-02-11T17:26:29.058Z,27.33
2023-02-11T17:28:57.791Z,25.75
2023-02-11T17:31:26.190Z,24.88
2023-02-11T17:33:55.011Z,26.70
2023-02-11T17:36:26.721Z,20.85
2023-02-11T17:38:58.444Z,20.95
2023-02-11T17:41:26.957Z,22.88
2023-02-11T17:44:01.315Z,20.40
2023-02-11T17:46:29.804Z,21.35
2023-02-11T17:49:00.356Z,19.88
2023-02-11T17:51:36.409Z,20.42
2023-02-11T17:54:07.140Z,22.35
2023-02-11T17:56:37.482Z,21.83
2023-02-11T17:59:07.451Z,21.70
2023-02-11T18:01:36.915Z,18.98
2023-02-11T18:04:07.531Z,17.05
2023-02-11T18:06:37.000Z,17.73
2023-02-11T18:09:07.267Z,18.35
2023-02-11T18:11:45.427Z,20.02
2023-02-11T18:14:13.955Z,24.45
2023-02-11T18:16:47.456Z,20.90
2023-02-11T18:19:18.300Z,21.05
2023-02-11T18:21:54.906Z,20.98
2023-02-11T18:24:23.930Z,19.73
2023-02-11T18:26:55.733Z,20.70
2023-02-11T18:29:26.946Z,20.13
2023-02-11T18:31:57.863Z,23.58
2023-02-11T18:34:27.713Z,29.63
2023-02-11T18:37:03.347Z,28.60
2023-02-11T18:39:37.229Z,25.75
2023-02-11T18:42:06.955Z,23.33
2023-02-11T18:44:37.775Z,22.25
2023-02-11T18:47:09.412Z,21.65
2023-02-11T18:49:41.957Z,30.67
2023-02-11T18:52:12.365Z,28.60
2023-02-11T18:54:41.701Z,28.90
2023-02-11T18:57:11.648Z,24.50
2023-02-11T18:59:42.921Z,25.75
2023-02-11T19:02:13.926Z,25.00
2023-02-11T19:04:42.552Z,26.13
2023-02-11T19:07:14.591Z,26.25
2023-02-11T19:09:44.270Z,24.30
2023-02-11T19:12:20.597Z,22.50
2023-02-11T19:14:50.686Z,20.45
2023-02-11T19:17:22.772Z,20.02
2023-02-11T19:19:53.992Z,16.10
2023-02-11T19:22:35.505Z,15.57
2023-02-11T19:25:05.840Z,15.23
2023-02-11T19:27:45.349Z,16.02
2023-02-11T19:30:25.624Z,15.60
2023-02-11T19:33:17.640Z,15.80
2023-02-11T19:36:00.390Z,15.55
2023-02-11T19:38:37.927Z,15.88
2023-02-11T19:41:19.479Z,15.90
2023-02-11T19:43:57.651Z,16.13
2023-02-11T19:46:38.287Z,16.63
2023-02-11T19:49:06.887Z,18.20
2023-02-11T19:51:39.563Z,19.00
2023-02-11T19:54:10.405Z,21.35
2023-02-11T19:56:38.914Z,20.35
2023-02-11T19:59:09.564Z,18.95
2023-02-11T20:01:37.853Z,21.15
2023-02-11T20:04:12.595Z,20.88
2023-02-11T20:06:43.409Z,22.25
2023-02-11T20:09:16.482Z,23.30
2023-02-11T20:14:17.707Z,22.08
2023-02-11T20:16:49.833Z,25.23
2023-02-11T20:19:21.741Z,25.70
2023-02-11T20:21:53.663Z,26.83
2023-02-11T20:24:28.091Z,26.90
2023-02-11T20:27:08.265Z,28.83
2023-02-11T20:29:37.264Z,28.45
2023-02-11T20:32:14.558Z,28.98
2023-02-11T20:34:43.851Z,27.80
2023-02-11T20:37:13.426Z,26.33
2023-02-11T20:39:48.577Z,27.33
2023-02-11T20:42:19.440Z,27.15
2023-02-11T20:44:50.745Z,27.80
2023-02-11T20:47:20.877Z,26.75
2023-02-11T20:49:59.342Z,25.27
2023-02-11T20:52:31.145Z,26.95
2023-02-11T20:55:14.218Z,35.45
2023-02-11T20:57:42.643Z,26.75
2023-02-11T21:00:13.499Z,27.73
2023-02-11T21:02:44.940Z,27.20
2023-02-11T21:05:17.270Z,25.13
2023-02-11T21:07:48.606Z,24.02
2023-02-11T21:10:24.666Z,24.38
2023-02-11T21:12:54.583Z,24.15
2023-02-11T21:15:26.515Z,24.55
2023-02-11T21:17:58.724Z,25.27
2023-02-11T21:20:27.256Z,23.03
2023-02-11T21:22:59.664Z,23.48
2023-02-11T21:25:39.302Z,23.08
2023-02-11T21:28:09.671Z,23.55
2023-02-11T21:30:49.018Z,23.63
2023-02-11T21:33:38.976Z,23.67
2023-02-11T21:36:08.515Z,22.38
2023-02-11T21:38:37.618Z,23.42
2023-02-11T21:41:09.181Z,25.77
2023-02-11T21:43:38.285Z,23.67
2023-02-11T21:46:10.727Z,22.38
2023-02-11T21:48:39.309Z,24.00
2023-02-11T21:51:12.463Z,23.35
2023-02-11T21:53:48.321Z,26.15
2023-02-11T21:56:20.759Z,25.77
2023-02-11T21:58:53.970Z,25.05
2023-02-11T22:01:26.416Z,27.92
2023-02-11T22:03:57.201Z,24.95
2023-02-11T22:06:28.883Z,27.60
2023-02-11T22:08:58.524Z,25.58
2023-02-11T22:11:28.642Z,24.88
2023-02-11T22:14:00.224Z,25.00
2023-02-11T22:16:29.401Z,25.45
2023-02-11T22:19:04.225Z,24.63
2023-02-11T22:21:45.272Z,23.88
2023-02-11T22:24:33.566Z,25.27
2023-02-11T22:27:05.238Z,25.17
2023-02-11T22:29:49.723Z,24.80
2023-02-11T22:32:21.410Z,27.30
2023-02-11T22:34:53.190Z,27.20
2023-02-11T22:37:32.015Z,25.27
2023-02-11T22:40:10.213Z,25.02
2023-02-11T22:42:49.006Z,25.20
2023-02-11T22:45:37.469Z,24.10
2023-02-11T22:48:10.027Z,24.63
2023-02-11T22:50:53.629Z,24.77
2023-02-11T22:53:25.158Z,22.23
2023-02-11T22:55:54.769Z,22.95
2023-02-11T22:58:26.901Z,23.30
2023-02-11T23:00:55.539Z,22.75
2023-02-11T23:03:26.670Z,21.80
2023-02-11T23:06:02.186Z,22.13
2023-02-11T23:08:34.997Z,22.83
2023-02-11T23:11:13.307Z,24.23
2023-02-11T23:13:45.244Z,24.33
2023-02-11T23:16:27.483Z,22.40
2023-02-11T23:18:59.124Z,24.02
2023-02-11T23:21:31.849Z,23.25
2023-02-11T23:24:10.112Z,23.02
2023-02-11T23:26:40.276Z,22.30
2023-02-11T23:29:14.597Z,24.48
2023-02-11T23:31:46.739Z,24.92
2023-02-11T23:34:23.864Z,24.03
2023-02-11T23:36:53.382Z,22.73
2023-02-11T23:39:21.873Z,22.88
2023-02-11T23:41:59.029Z,23.05
2023-02-11T23:44:30.435Z,23.30
2023-02-11T23:46:59.726Z,22.50
2023-02-11T23:49:28.334Z,23.00
2023-02-11T23:51:56.771Z,22.92
2023-02-11T23:54:26.235Z,22.55
2023-02-11T23:56:56.719Z,21.77
2023-02-11T23:59:32.214Z,22.40
